DMSAG EDNX-EDFB
Flight info
| Callsign | DMSAG |
|---|---|
| Flight time | 1h 3m |
| Altitude | 6000 |
| Route | WLD DCT DKB DCT GEDSI |
| Aircraft | VL3E/L-SFG/C |
Departure
| Time | 2026-04-30 08:17 |
|---|---|
| Airport | Schleissheim Airfield (EDNX) |
Arrival
| Time | 2026-04-30 09:20 |
|---|---|
| Airport | Reichelsheim Airfield (EDFB) |
| Time | Latitude | Longitude | Altitude | Speed | Heading |
|---|---|---|---|---|---|
| 2026-04-30 08:10 | 48.23567 | 11.55309 | 1602 ft | 0 kts | 34° |
| 2026-04-30 08:13 | 48.23576 | 11.55307 | 1603 ft | 5 kts | 308° |
| 2026-04-30 08:13 | 48.23612 | 11.55236 | 1601 ft | 14 kts | 302° |
| 2026-04-30 08:13 | 48.23729 | 11.55157 | 1601 ft | 25 kts | 353° |
| 2026-04-30 08:14 | 48.23796 | 11.55226 | 1601 ft | 10 kts | 83° |
| 2026-04-30 08:14 | 48.23812 | 11.55318 | 1602 ft | 9 kts | 75° |
| 2026-04-30 08:14 | 48.23826 | 11.55394 | 1602 ft | 3 kts | 75° |
| 2026-04-30 08:16 | 48.23858 | 11.55577 | 1603 ft | 55 kts | 75° |
| 2026-04-30 08:16 | 48.23981 | 11.56229 | 1731 ft | 72 kts | 78° |
| 2026-04-30 08:16 | 48.24145 | 11.57053 | 1878 ft | 90 kts | 75° |
| 2026-04-30 08:16 | 48.24342 | 11.57964 | 2039 ft | 96 kts | 74° |
| 2026-04-30 08:17 | 48.24542 | 11.58914 | 2204 ft | 94 kts | 74° |
| 2026-04-30 08:17 | 48.24743 | 11.59851 | 2362 ft | 97 kts | 71° |
| 2026-04-30 08:17 | 48.25316 | 11.60426 | 2531 ft | 116 kts | 14° |
| 2026-04-30 08:17 | 48.26143 | 11.60419 | 2709 ft | 121 kts | 5° |
| 2026-04-30 08:18 | 48.26977 | 11.60309 | 2809 ft | 121 kts | 4° |
| 2026-04-30 08:18 | 48.27827 | 11.60191 | 2812 ft | 123 kts | 4° |
| 2026-04-30 08:18 | 48.28687 | 11.60077 | 2823 ft | 125 kts | 4° |
| 2026-04-30 08:18 | 48.29551 | 11.59754 | 2803 ft | 138 kts | 333° |
| 2026-04-30 08:19 | 48.30016 | 11.58478 | 2802 ft | 147 kts | 276° |
| 2026-04-30 08:19 | 48.29812 | 11.57000 | 2799 ft | 145 kts | 242° |
| 2026-04-30 08:19 | 48.29276 | 11.55723 | 2808 ft | 144 kts | 232° |
| 2026-04-30 08:19 | 48.28852 | 11.54361 | 2802 ft | 148 kts | 259° |
| 2026-04-30 08:20 | 48.28720 | 11.52817 | 2824 ft | 150 kts | 256° |
| 2026-04-30 08:20 | 48.28464 | 11.51279 | 3015 ft | 157 kts | 253° |
| 2026-04-30 08:20 | 48.28293 | 11.49621 | 3292 ft | 170 kts | 276° |
| 2026-04-30 08:20 | 48.28848 | 11.48027 | 3313 ft | 179 kts | 324° |
| 2026-04-30 08:21 | 48.29966 | 11.47317 | 3322 ft | 175 kts | 355° |
| 2026-04-30 08:21 | 48.31145 | 11.46739 | 3319 ft | 183 kts | 341° |
| 2026-04-30 08:21 | 48.32187 | 11.45628 | 3314 ft | 179 kts | 324° |
| 2026-04-30 08:21 | 48.33089 | 11.44418 | 3316 ft | 171 kts | 325° |
| 2026-04-30 08:22 | 48.33998 | 11.43254 | 3308 ft | 172 kts | 327° |
| 2026-04-30 08:22 | 48.34916 | 11.42103 | 3302 ft | 171 kts | 326° |
| 2026-04-30 08:22 | 48.35816 | 11.40966 | 3309 ft | 167 kts | 326° |
| 2026-04-30 08:22 | 48.36711 | 11.39839 | 3303 ft | 168 kts | 327° |
| 2026-04-30 08:23 | 48.37612 | 11.38708 | 3305 ft | 171 kts | 326° |
| 2026-04-30 08:23 | 48.37875 | 11.38379 | 3298 ft | 172 kts | 326° |
| 2026-04-30 08:23 | 48.37893 | 11.38356 | 3299 ft | 171 kts | 327° |
| 2026-04-30 08:23 | 48.38807 | 11.37204 | 3299 ft | 173 kts | 326° |
| 2026-04-30 08:24 | 48.39722 | 11.36041 | 3300 ft | 171 kts | 326° |
| 2026-04-30 08:24 | 48.40638 | 11.34893 | 3287 ft | 173 kts | 327° |
| 2026-04-30 08:24 | 48.41553 | 11.33734 | 3286 ft | 171 kts | 326° |
| 2026-04-30 08:24 | 48.42467 | 11.32580 | 3285 ft | 172 kts | 327° |
| 2026-04-30 08:25 | 48.43373 | 11.31436 | 3295 ft | 169 kts | 326° |
| 2026-04-30 08:25 | 48.44255 | 11.30314 | 3411 ft | 162 kts | 327° |
| 2026-04-30 08:25 | 48.45098 | 11.29248 | 3671 ft | 160 kts | 328° |
| 2026-04-30 08:25 | 48.45972 | 11.28156 | 3916 ft | 163 kts | 327° |
| 2026-04-30 08:26 | 48.46841 | 11.27058 | 4164 ft | 161 kts | 327° |
| 2026-04-30 08:26 | 48.47712 | 11.25945 | 4276 ft | 169 kts | 327° |
| 2026-04-30 08:26 | 48.48626 | 11.24785 | 4299 ft | 175 kts | 327° |
| 2026-04-30 08:26 | 48.49562 | 11.23599 | 4379 ft | 174 kts | 326° |
| 2026-04-30 08:27 | 48.50476 | 11.22432 | 4602 ft | 172 kts | 326° |
| 2026-04-30 08:27 | 48.51379 | 11.21287 | 4804 ft | 167 kts | 326° |
| 2026-04-30 08:27 | 48.52270 | 11.20163 | 5030 ft | 168 kts | 326° |
| 2026-04-30 08:27 | 48.53161 | 11.19026 | 5232 ft | 167 kts | 326° |
| 2026-04-30 08:28 | 48.54057 | 11.17892 | 5299 ft | 171 kts | 326° |
| 2026-04-30 08:28 | 48.54984 | 11.16715 | 5320 ft | 177 kts | 325° |
| 2026-04-30 08:28 | 48.55933 | 11.15505 | 5312 ft | 179 kts | 325° |
| 2026-04-30 08:28 | 48.56868 | 11.14317 | 5319 ft | 179 kts | 325° |
| 2026-04-30 08:29 | 48.57824 | 11.13104 | 5323 ft | 179 kts | 325° |
| 2026-04-30 08:29 | 48.58779 | 11.11882 | 5320 ft | 179 kts | 325° |
| 2026-04-30 08:29 | 48.59694 | 11.10709 | 5608 ft | 165 kts | 325° |
| 2026-04-30 08:29 | 48.60551 | 11.09612 | 5959 ft | 160 kts | 326° |
| 2026-04-30 08:30 | 48.61405 | 11.08529 | 6309 ft | 161 kts | 325° |
| 2026-04-30 08:30 | 48.62274 | 11.07419 | 6506 ft | 169 kts | 325° |
| 2026-04-30 08:30 | 48.63209 | 11.06235 | 6508 ft | 177 kts | 324° |
| 2026-04-30 08:30 | 48.64142 | 11.05037 | 6506 ft | 175 kts | 324° |
| 2026-04-30 08:31 | 48.65071 | 11.03845 | 6510 ft | 175 kts | 324° |
| 2026-04-30 08:31 | 48.66009 | 11.02651 | 6517 ft | 177 kts | 324° |
| 2026-04-30 08:31 | 48.66959 | 11.01439 | 6523 ft | 180 kts | 324° |
| 2026-04-30 08:31 | 48.67885 | 11.00186 | 6511 ft | 179 kts | 313° |
| 2026-04-30 08:32 | 48.68342 | 10.98418 | 6512 ft | 183 kts | 281° |
| 2026-04-30 08:32 | 48.68660 | 10.96575 | 6505 ft | 183 kts | 293° |
| 2026-04-30 08:32 | 48.69365 | 10.95013 | 6508 ft | 179 kts | 317° |
| 2026-04-30 08:32 | 48.70247 | 10.93698 | 6509 ft | 178 kts | 320° |
| 2026-04-30 08:33 | 48.71126 | 10.92369 | 6513 ft | 180 kts | 319° |
| 2026-04-30 08:33 | 48.71996 | 10.91010 | 6514 ft | 179 kts | 319° |
| 2026-04-30 08:33 | 48.72858 | 10.89654 | 6513 ft | 178 kts | 319° |
| 2026-04-30 08:33 | 48.73720 | 10.88303 | 6525 ft | 179 kts | 319° |
| 2026-04-30 08:34 | 48.74591 | 10.86940 | 6527 ft | 180 kts | 318° |
| 2026-04-30 08:34 | 48.75444 | 10.85590 | 6520 ft | 178 kts | 318° |
| 2026-04-30 08:34 | 48.76307 | 10.84225 | 6526 ft | 181 kts | 318° |
| 2026-04-30 08:34 | 48.77174 | 10.82867 | 6517 ft | 178 kts | 319° |
| 2026-04-30 08:35 | 48.78034 | 10.81519 | 6529 ft | 178 kts | 318° |
| 2026-04-30 08:35 | 48.78904 | 10.80152 | 6520 ft | 181 kts | 318° |
| 2026-04-30 08:35 | 48.79769 | 10.78788 | 6530 ft | 179 kts | 318° |
| 2026-04-30 08:35 | 48.80636 | 10.77416 | 6522 ft | 180 kts | 318° |
| 2026-04-30 08:36 | 48.81497 | 10.76067 | 6522 ft | 177 kts | 319° |
| 2026-04-30 08:36 | 48.82351 | 10.74716 | 6531 ft | 179 kts | 318° |
| 2026-04-30 08:36 | 48.83215 | 10.73355 | 6526 ft | 178 kts | 319° |
| 2026-04-30 08:36 | 48.84074 | 10.72005 | 6527 ft | 178 kts | 318° |
| 2026-04-30 08:37 | 48.84937 | 10.70639 | 6521 ft | 179 kts | 319° |
| 2026-04-30 08:37 | 48.85801 | 10.69277 | 6529 ft | 180 kts | 318° |
| 2026-04-30 08:37 | 48.86663 | 10.67907 | 6535 ft | 180 kts | 318° |
| 2026-04-30 08:37 | 48.87534 | 10.66525 | 6534 ft | 181 kts | 318° |
| 2026-04-30 08:38 | 48.88403 | 10.65146 | 6527 ft | 179 kts | 318° |
| 2026-04-30 08:38 | 48.89266 | 10.63779 | 6538 ft | 180 kts | 318° |
| 2026-04-30 08:38 | 48.90141 | 10.62395 | 6533 ft | 181 kts | 319° |
| 2026-04-30 08:38 | 48.90994 | 10.61044 | 6536 ft | 178 kts | 319° |
| 2026-04-30 08:39 | 48.91854 | 10.59683 | 6535 ft | 179 kts | 318° |
| 2026-04-30 08:39 | 48.92716 | 10.58308 | 6532 ft | 179 kts | 318° |
| 2026-04-30 08:39 | 48.93576 | 10.56940 | 6534 ft | 179 kts | 318° |
| 2026-04-30 08:39 | 48.94436 | 10.55574 | 6538 ft | 179 kts | 319° |
| 2026-04-30 08:40 | 48.95299 | 10.54206 | 6542 ft | 180 kts | 318° |
| 2026-04-30 08:40 | 48.96170 | 10.52822 | 6542 ft | 181 kts | 318° |
| 2026-04-30 08:40 | 48.97036 | 10.51433 | 6541 ft | 181 kts | 318° |
| 2026-04-30 08:40 | 48.97904 | 10.50057 | 6538 ft | 180 kts | 319° |
| 2026-04-30 08:41 | 48.98769 | 10.48682 | 6547 ft | 181 kts | 318° |
| 2026-04-30 08:41 | 48.99637 | 10.47297 | 6542 ft | 181 kts | 318° |
| 2026-04-30 08:41 | 49.00500 | 10.45921 | 6537 ft | 179 kts | 319° |
| 2026-04-30 08:41 | 49.01357 | 10.44553 | 6543 ft | 179 kts | 319° |
| 2026-04-30 08:42 | 49.02220 | 10.43174 | 6543 ft | 180 kts | 318° |
| 2026-04-30 08:42 | 49.03079 | 10.41796 | 6535 ft | 179 kts | 318° |
| 2026-04-30 08:42 | 49.03934 | 10.40430 | 6534 ft | 179 kts | 318° |
| 2026-04-30 08:42 | 49.04795 | 10.39056 | 6531 ft | 179 kts | 318° |
| 2026-04-30 08:43 | 49.05653 | 10.37684 | 6530 ft | 179 kts | 318° |
| 2026-04-30 08:43 | 49.06509 | 10.36311 | 6533 ft | 179 kts | 319° |
| 2026-04-30 08:43 | 49.07375 | 10.34926 | 6528 ft | 180 kts | 318° |
| 2026-04-30 08:43 | 49.08221 | 10.33572 | 6529 ft | 179 kts | 318° |
| 2026-04-30 08:44 | 49.09080 | 10.32194 | 6535 ft | 179 kts | 318° |
| 2026-04-30 08:44 | 49.09936 | 10.30818 | 6584 ft | 177 kts | 318° |
| 2026-04-30 08:44 | 49.10771 | 10.29474 | 6704 ft | 173 kts | 318° |
| 2026-04-30 08:44 | 49.11597 | 10.28147 | 6823 ft | 170 kts | 319° |
| 2026-04-30 08:45 | 49.12420 | 10.26825 | 6905 ft | 173 kts | 319° |
| 2026-04-30 08:45 | 49.13259 | 10.25476 | 6904 ft | 177 kts | 318° |
| 2026-04-30 08:45 | 49.14114 | 10.24129 | 6890 ft | 176 kts | 323° |
| 2026-04-30 08:45 | 49.15139 | 10.23204 | 6891 ft | 169 kts | 343° |
| 2026-04-30 08:46 | 49.16191 | 10.22450 | 6898 ft | 169 kts | 341° |
| 2026-04-30 08:46 | 49.17252 | 10.21665 | 6897 ft | 170 kts | 341° |
| 2026-04-30 08:46 | 49.18330 | 10.20877 | 6906 ft | 173 kts | 341° |
| 2026-04-30 08:46 | 49.19416 | 10.20085 | 6902 ft | 173 kts | 342° |
| 2026-04-30 08:47 | 49.20498 | 10.19290 | 6904 ft | 172 kts | 341° |
| 2026-04-30 08:47 | 49.21568 | 10.18501 | 6898 ft | 170 kts | 341° |
| 2026-04-30 08:47 | 49.22637 | 10.17717 | 6902 ft | 170 kts | 341° |
| 2026-04-30 08:47 | 49.23708 | 10.16935 | 6899 ft | 170 kts | 341° |
| 2026-04-30 08:48 | 49.24775 | 10.16152 | 6899 ft | 170 kts | 341° |
| 2026-04-30 08:48 | 49.25838 | 10.15373 | 6902 ft | 170 kts | 341° |
| 2026-04-30 08:48 | 49.26912 | 10.14585 | 6902 ft | 171 kts | 341° |
| 2026-04-30 08:48 | 49.27988 | 10.13796 | 6908 ft | 172 kts | 341° |
| 2026-04-30 08:49 | 49.29068 | 10.13001 | 6906 ft | 171 kts | 341° |
| 2026-04-30 08:49 | 49.30139 | 10.12216 | 6910 ft | 173 kts | 341° |
| 2026-04-30 08:49 | 49.31224 | 10.11419 | 6905 ft | 172 kts | 341° |
| 2026-04-30 08:49 | 49.32298 | 10.10623 | 6908 ft | 171 kts | 341° |
| 2026-04-30 08:50 | 49.33375 | 10.09832 | 6909 ft | 173 kts | 342° |
| 2026-04-30 08:50 | 49.34463 | 10.09035 | 6909 ft | 174 kts | 341° |
| 2026-04-30 08:50 | 49.35559 | 10.08225 | 6906 ft | 175 kts | 341° |
| 2026-04-30 08:50 | 49.36642 | 10.07424 | 6903 ft | 172 kts | 341° |
| 2026-04-30 08:51 | 49.37713 | 10.06633 | 6901 ft | 170 kts | 341° |
| 2026-04-30 08:51 | 49.38791 | 10.05837 | 6910 ft | 173 kts | 341° |
| 2026-04-30 08:51 | 49.39878 | 10.05036 | 6903 ft | 172 kts | 341° |
| 2026-04-30 08:51 | 49.40954 | 10.04241 | 6909 ft | 172 kts | 341° |
| 2026-04-30 08:52 | 49.42037 | 10.03442 | 6903 ft | 172 kts | 341° |
| 2026-04-30 08:52 | 49.43123 | 10.02640 | 6914 ft | 175 kts | 341° |
| 2026-04-30 08:52 | 49.44219 | 10.01828 | 6907 ft | 174 kts | 341° |
| 2026-04-30 08:52 | 49.45304 | 10.01021 | 6903 ft | 172 kts | 341° |
| 2026-04-30 08:53 | 49.46381 | 10.00224 | 6901 ft | 171 kts | 341° |
| 2026-04-30 08:53 | 49.47452 | 9.99432 | 6901 ft | 170 kts | 341° |
| 2026-04-30 08:53 | 49.48527 | 9.98635 | 6907 ft | 173 kts | 341° |
| 2026-04-30 08:53 | 49.49607 | 9.97834 | 6897 ft | 171 kts | 342° |
| 2026-04-30 08:54 | 49.50671 | 9.97043 | 6901 ft | 170 kts | 342° |
| 2026-04-30 08:54 | 49.51752 | 9.96243 | 6903 ft | 173 kts | 341° |
| 2026-04-30 08:54 | 49.52842 | 9.95429 | 6902 ft | 174 kts | 341° |
| 2026-04-30 08:54 | 49.53913 | 9.94636 | 6898 ft | 172 kts | 341° |
| 2026-04-30 08:55 | 49.54990 | 9.93835 | 6904 ft | 172 kts | 341° |
| 2026-04-30 08:55 | 49.56077 | 9.93031 | 6907 ft | 174 kts | 341° |
| 2026-04-30 08:55 | 49.57173 | 9.92213 | 6904 ft | 175 kts | 341° |
| 2026-04-30 08:55 | 49.58262 | 9.91398 | 6901 ft | 173 kts | 341° |
| 2026-04-30 08:56 | 49.59353 | 9.90583 | 6907 ft | 174 kts | 341° |
| 2026-04-30 08:56 | 49.60443 | 9.89774 | 6904 ft | 174 kts | 341° |
| 2026-04-30 08:56 | 49.61521 | 9.88968 | 6906 ft | 174 kts | 341° |
| 2026-04-30 08:56 | 49.62612 | 9.88157 | 6905 ft | 174 kts | 341° |
| 2026-04-30 08:57 | 49.63699 | 9.87346 | 6902 ft | 173 kts | 341° |
| 2026-04-30 08:57 | 49.64784 | 9.86536 | 6908 ft | 174 kts | 341° |
| 2026-04-30 08:57 | 49.65878 | 9.85717 | 6904 ft | 174 kts | 341° |
| 2026-04-30 08:57 | 49.66964 | 9.84905 | 6907 ft | 173 kts | 341° |
| 2026-04-30 08:58 | 49.68053 | 9.84092 | 6905 ft | 174 kts | 341° |
| 2026-04-30 08:58 | 49.69137 | 9.83279 | 6909 ft | 173 kts | 341° |
| 2026-04-30 08:58 | 49.70224 | 9.82465 | 6905 ft | 173 kts | 341° |
| 2026-04-30 08:58 | 49.71302 | 9.81656 | 6904 ft | 172 kts | 341° |
| 2026-04-30 08:59 | 49.72016 | 9.81121 | 6907 ft | 172 kts | 341° |
| 2026-04-30 08:59 | 49.73440 | 9.80054 | 6906 ft | 172 kts | 341° |
| 2026-04-30 08:59 | 49.74514 | 9.79248 | 6913 ft | 172 kts | 341° |
| 2026-04-30 08:59 | 49.75593 | 9.78439 | 6912 ft | 173 kts | 341° |
| 2026-04-30 09:00 | 49.76680 | 9.77623 | 6914 ft | 173 kts | 341° |
| 2026-04-30 09:00 | 49.77411 | 9.77072 | 6920 ft | 173 kts | 341° |
| 2026-04-30 09:00 | 49.78505 | 9.76252 | 6921 ft | 175 kts | 341° |
| 2026-04-30 09:00 | 49.79593 | 9.75435 | 6911 ft | 176 kts | 341° |
| 2026-04-30 09:01 | 49.80690 | 9.74603 | 6913 ft | 175 kts | 341° |
| 2026-04-30 09:01 | 49.81790 | 9.73777 | 6915 ft | 176 kts | 341° |
| 2026-04-30 09:01 | 49.82887 | 9.72951 | 6914 ft | 175 kts | 341° |
| 2026-04-30 09:01 | 49.83977 | 9.72134 | 6922 ft | 174 kts | 341° |
| 2026-04-30 09:02 | 49.86163 | 9.70481 | 6928 ft | 176 kts | 341° |
| 2026-04-30 09:02 | 49.87265 | 9.69648 | 6929 ft | 175 kts | 341° |
| 2026-04-30 09:02 | 49.88363 | 9.68820 | 6927 ft | 175 kts | 341° |
| 2026-04-30 09:03 | 49.89455 | 9.67996 | 6930 ft | 175 kts | 341° |
| 2026-04-30 09:03 | 49.90557 | 9.67166 | 6875 ft | 177 kts | 341° |
| 2026-04-30 09:03 | 49.91671 | 9.66324 | 6807 ft | 179 kts | 341° |
| 2026-04-30 09:03 | 49.92795 | 9.65473 | 6733 ft | 180 kts | 341° |
| 2026-04-30 09:04 | 49.93908 | 9.64625 | 6721 ft | 176 kts | 341° |
| 2026-04-30 09:04 | 49.95001 | 9.63797 | 6720 ft | 174 kts | 341° |
| 2026-04-30 09:04 | 49.96071 | 9.62987 | 6723 ft | 173 kts | 341° |
| 2026-04-30 09:04 | 49.97161 | 9.62160 | 6721 ft | 172 kts | 341° |
| 2026-04-30 09:05 | 49.98221 | 9.61357 | 6719 ft | 172 kts | 341° |
| 2026-04-30 09:05 | 49.99306 | 9.60535 | 6724 ft | 171 kts | 341° |
| 2026-04-30 09:05 | 50.00364 | 9.59731 | 6720 ft | 172 kts | 341° |
| 2026-04-30 09:05 | 50.01457 | 9.58903 | 6730 ft | 174 kts | 341° |
| 2026-04-30 09:06 | 50.02541 | 9.58081 | 6723 ft | 172 kts | 341° |
| 2026-04-30 09:06 | 50.03614 | 9.57261 | 6720 ft | 172 kts | 341° |
| 2026-04-30 09:06 | 50.04680 | 9.56448 | 6729 ft | 169 kts | 341° |
| 2026-04-30 09:06 | 50.05741 | 9.55641 | 6728 ft | 171 kts | 341° |
| 2026-04-30 09:07 | 50.06798 | 9.54835 | 6725 ft | 171 kts | 341° |
| 2026-04-30 09:07 | 50.07871 | 9.54019 | 6729 ft | 172 kts | 341° |
| 2026-04-30 09:07 | 50.08965 | 9.53190 | 6738 ft | 177 kts | 341° |
| 2026-04-30 09:07 | 50.10085 | 9.52337 | 6572 ft | 181 kts | 341° |
| 2026-04-30 09:08 | 50.11218 | 9.51466 | 6398 ft | 182 kts | 341° |
| 2026-04-30 09:08 | 50.12350 | 9.50600 | 6221 ft | 181 kts | 341° |
| 2026-04-30 09:08 | 50.13491 | 9.49729 | 6031 ft | 184 kts | 341° |
| 2026-04-30 09:08 | 50.14645 | 9.48848 | 5836 ft | 185 kts | 341° |
| 2026-04-30 09:09 | 50.15795 | 9.47970 | 5630 ft | 183 kts | 341° |
| 2026-04-30 09:09 | 50.16936 | 9.47099 | 5441 ft | 183 kts | 341° |
| 2026-04-30 09:09 | 50.18091 | 9.46214 | 5228 ft | 185 kts | 341° |
| 2026-04-30 09:09 | 50.19238 | 9.45330 | 5035 ft | 183 kts | 341° |
| 2026-04-30 09:10 | 50.20381 | 9.44455 | 4827 ft | 182 kts | 340° |
| 2026-04-30 09:10 | 50.21516 | 9.43587 | 4624 ft | 182 kts | 340° |
| 2026-04-30 09:10 | 50.22648 | 9.42716 | 4408 ft | 180 kts | 340° |
| 2026-04-30 09:10 | 50.23771 | 9.41849 | 4212 ft | 180 kts | 338° |
| 2026-04-30 09:11 | 50.24743 | 9.40583 | 4001 ft | 187 kts | 312° |
| 2026-04-30 09:11 | 50.25336 | 9.38770 | 3788 ft | 189 kts | 286° |
| 2026-04-30 09:11 | 50.25574 | 9.36788 | 3591 ft | 187 kts | 280° |
| 2026-04-30 09:11 | 50.25802 | 9.34794 | 3383 ft | 187 kts | 280° |
| 2026-04-30 09:12 | 50.26037 | 9.32791 | 3307 ft | 187 kts | 280° |
| 2026-04-30 09:12 | 50.26272 | 9.30839 | 3311 ft | 180 kts | 281° |
| 2026-04-30 09:12 | 50.26504 | 9.28904 | 3303 ft | 180 kts | 280° |
| 2026-04-30 09:12 | 50.26724 | 9.27015 | 3301 ft | 174 kts | 280° |
| 2026-04-30 09:13 | 50.26942 | 9.25152 | 3299 ft | 175 kts | 280° |
| 2026-04-30 09:13 | 50.27160 | 9.23294 | 3294 ft | 172 kts | 280° |
| 2026-04-30 09:13 | 50.27373 | 9.21465 | 3308 ft | 170 kts | 281° |
| 2026-04-30 09:13 | 50.27593 | 9.19614 | 3301 ft | 175 kts | 280° |
| 2026-04-30 09:14 | 50.27809 | 9.17750 | 3297 ft | 174 kts | 280° |
| 2026-04-30 09:14 | 50.28021 | 9.15896 | 3300 ft | 173 kts | 279° |
| 2026-04-30 09:14 | 50.28232 | 9.14087 | 3305 ft | 171 kts | 280° |
| 2026-04-30 09:14 | 50.28467 | 9.12244 | 3319 ft | 175 kts | 286° |
| 2026-04-30 09:15 | 50.28854 | 9.10420 | 3312 ft | 175 kts | 290° |
| 2026-04-30 09:15 | 50.29240 | 9.08615 | 3250 ft | 171 kts | 290° |
| 2026-04-30 09:15 | 50.29604 | 9.06907 | 3151 ft | 164 kts | 290° |
| 2026-04-30 09:15 | 50.29948 | 9.05201 | 2978 ft | 161 kts | 289° |
| 2026-04-30 09:16 | 50.30265 | 9.03520 | 2723 ft | 162 kts | 284° |
| 2026-04-30 09:16 | 50.30450 | 9.01778 | 2519 ft | 164 kts | 280° |
| 2026-04-30 09:16 | 50.30594 | 9.00080 | 2177 ft | 150 kts | 278° |
| 2026-04-30 09:16 | 50.30771 | 8.98539 | 1813 ft | 141 kts | 283° |
| 2026-04-30 09:17 | 50.30980 | 8.97073 | 1439 ft | 138 kts | 284° |
| 2026-04-30 09:17 | 50.31173 | 8.95638 | 1186 ft | 128 kts | 284° |
| 2026-04-30 09:17 | 50.31382 | 8.94392 | 1183 ft | 112 kts | 288° |
| 2026-04-30 09:17 | 50.31567 | 8.93258 | 1120 ft | 103 kts | 288° |
| 2026-04-30 09:18 | 50.31728 | 8.92142 | 876 ft | 110 kts | 288° |
| 2026-04-30 09:18 | 50.31838 | 8.91084 | 898 ft | 89 kts | 277° |
| 2026-04-30 09:18 | 50.31835 | 8.90120 | 993 ft | 90 kts | 277° |
| 2026-04-30 09:18 | 50.31890 | 8.89118 | 954 ft | 92 kts | 277° |
| 2026-04-30 09:19 | 50.32000 | 8.88222 | 1006 ft | 84 kts | 300° |
| 2026-04-30 09:19 | 50.32388 | 8.87845 | 783 ft | 59 kts | 18° |
| 2026-04-30 09:19 | 50.32792 | 8.87916 | 603 ft | 59 kts | 13° |
| 2026-04-30 09:19 | 50.33215 | 8.87902 | 473 ft | 63 kts | 7° |
| 2026-04-30 09:20 | 50.33610 | 8.87874 | 422 ft | 46 kts | 8° |
| 2026-04-30 09:20 | 50.33811 | 8.87874 | 420 ft | 0 kts | 354° |